Aeroporto :
LOGIN :

Iscrizione | Disclaimer

   EN    FR    IT 

 










Sommario :    VFR   VFR Marginale   IFR   IFR Intensivo   IFR Molto Intensivo
Visibilità : 
Base nubi : 
>= 8 km
>= 3000ft
5 / 8 km
1000 / 3000 ft
1500m / 5 km
500 / 1000 ft
800 / 1500m
200 / 500 ft
< 800m
< 200 ft
Simboli :   Temporali  Nebbia  Neve Forte  Precipitazioni Forti  Vento > 20 kt
SIGMETs :   Varie  Temporali  Ghiacco  Turbolenza  Onda orograficha  Ceneri Vulcaniche







- Altitudine del aeroporto : 782 ft
- Codice IATA : BGY


LIME - Orio al Serio International - Bergamo

ULTIMO METAR :
  • 161220Z 23005KT 140V290 CAVOK 29/13 Q1014 NOSIG

METARs OBSOLETI :
  • 161150Z 21006KT 140V280 CAVOK 28/15 Q1014 NOSIG
  • 161120Z 29006KT 240V340 CAVOK 27/13 Q1014 NOSIG
  • 161050Z 27006KT 220V330 CAVOK 26/15 Q1014 NOSIG
  • 161020Z VRB03KT CAVOK 26/15 Q1015 NOSIG
  • 160950Z 26005KT 200V300 CAVOK 26/14 Q1015 NOSIG

TAF TAF LIME
Valido dal 16 a 12 ore il 17 a 12 ore UTC


161100Z 1612/1712 VRB05KT CAVOK
PROB40
TEMPO 1616/1619 TSRA
Nessun NOTAM noto per questo aeroporto.



MetMap, La meteo Aeronautica in un colpo d'occhio ! - Copyright ORBIFLY Dicembre 2007 - Disclaimer

ORBIFLY MET'MAP TEAM :

Programmazione e sviluppo : Alexandra Zaïnal
Concezione e sviluppo : Baudouin d'Aumeries
Co-Programmazione e sviluppo : Marc-Olivier Méhu
Supporto tecnico e logistico : Manuel Goepfert
Aiuto per la traduzione : Arnaldo La Scala

Contatto : metmap@orbifly.com




FONTI E CREDITI :

   NOAA